Time;durP1;ratioP1;P1;durP2;ratioP2;P2;SDS_P1;SDS_P2;PMS_P1;PMS_P2;Temp;Humidity;BMP_temperature;BMP_pressure;BME280_temperature;BME280_humidity;BME280_pressure;Samples;Min_cycle;Max_cycle;Signal;HPM_P1;HPM_P2
2023/11/04 00:01:30;;;;;;;4.40;2.70;;;4.80;18.40;;;;;;4994498;28;20222;-69
2023/11/04 00:03:56;;;;;;;4.23;2.63;;;4.90;18.50;;;;;;4994895;28;20184;-69
2023/11/04 00:06:23;;;;;;;4.17;2.50;;;4.90;18.20;;;;;;4993551;28;20214;-68
2023/11/04 00:08:49;;;;;;;3.10;2.20;;;5.00;17.40;;;;;;4994710;28;20236;-68
2023/11/04 00:11:14;;;;;;;3.27;1.80;;;5.10;16.00;;;;;;4993048;28;20462;-69
2023/11/04 00:13:40;;;;;;;4.00;2.00;;;5.20;16.00;;;;;;4995142;28;20543;-69
2023/11/04 00:16:09;;;;;;;9.60;3.10;;;5.30;15.70;;;;;;4994596;28;20673;-69
2023/11/04 00:18:36;;;;;;;4.07;2.10;;;5.30;14.70;;;;;;4994562;28;20493;-69
2023/11/04 00:21:02;;;;;;;9.00;2.33;;;5.40;14.90;;;;;;4994253;28;20433;-68
2023/11/04 00:23:27;;;;;;;3.47;2.37;;;5.50;13.40;;;;;;4993223;28;20423;-69
2023/11/04 00:25:53;;;;;;;4.37;1.90;;;5.50;13.00;;;;;;4994289;28;20434;-68
2023/11/04 00:28:19;;;;;;;5.00;2.73;;;5.60;12.20;;;;;;4994277;28;20179;-69
2023/11/04 00:30:44;;;;;;;3.63;2.03;;;5.60;12.00;;;;;;4994165;28;20282;-69
2023/11/04 00:33:10;;;;;;;4.13;2.60;;;5.60;12.00;;;;;;4993053;28;20550;-69
2023/11/04 00:35:36;;;;;;;4.37;2.50;;;5.70;11.70;;;;;;4994142;28;20252;-68
2023/11/04 00:38:01;;;;;;;6.17;2.13;;;5.70;11.30;;;;;;4994405;28;20237;-68
2023/11/04 00:40:27;;;;;;;4.50;2.30;;;5.70;11.30;;;;;;4993890;28;20184;-68
2023/11/04 00:42:53;;;;;;;4.40;2.57;;;5.70;10.60;;;;;;4993864;28;20198;-69
2023/11/04 00:45:18;;;;;;;3.37;1.93;;;5.80;10.10;;;;;;4994207;28;20551;-69
2023/11/04 00:47:44;;;;;;;4.20;1.90;;;5.80;9.70;;;;;;4994296;28;20464;-69
2023/11/04 00:50:10;;;;;;;3.50;2.40;;;5.90;10.50;;;;;;4994442;28;20216;-69
2023/11/04 00:52:36;;;;;;;4.33;2.30;;;5.90;10.50;;;;;;4994022;28;20203;-69
2023/11/04 00:55:03;;;;;;;4.60;2.60;;;5.90;10.10;;;;;;4994096;28;20937;-68
2023/11/04 00:57:28;;;;;;;2.60;1.53;;;6.00;8.80;;;;;;4993983;28;20471;-69
2023/11/04 00:59:54;;;;;;;2.97;2.13;;;6.00;8.10;;;;;;5008618;28;20503;-69
2023/11/04 01:02:19;;;;;;;6.07;2.33;;;6.00;7.90;;;;;;4993721;28;20196;-69
2023/11/04 01:04:45;;;;;;;4.67;1.90;;;6.00;7.90;;;;;;4993852;28;20174;-69
2023/11/04 01:07:10;;;;;;;2.67;1.70;;;6.10;7.90;;;;;;4992731;28;20275;-69
2023/11/04 01:09:36;;;;;;;3.30;2.17;;;6.10;8.40;;;;;;4994218;28;20183;-69
2023/11/04 01:12:02;;;;;;;2.53;1.60;;;6.10;8.00;;;;;;4993795;28;20215;-68
2023/11/04 01:14:27;;;;;;;2.20;1.10;;;6.10;8.00;;;;;;4992865;28;20563;-69
2023/11/04 01:16:53;;;;;;;2.80;1.50;;;6.20;8.30;;;;;;4993560;28;20206;-69
2023/11/04 01:19:18;;;;;;;2.57;1.37;;;6.20;8.50;;;;;;4993530;28;20208;-69
2023/11/04 01:21:44;;;;;;;2.87;2.20;;;6.20;8.00;;;;;;4992395;28;20193;-68
2023/11/04 01:24:10;;;;;;;2.93;1.80;;;6.20;8.60;;;;;;4993785;28;20180;-69
2023/11/04 01:26:36;;;;;;;2.60;1.43;;;6.10;8.20;;;;;;4992441;28;20596;-68
2023/11/04 01:29:02;;;;;;;2.40;1.50;;;6.00;8.60;;;;;;4993282;28;20424;-68
2023/11/04 01:31:27;;;;;;;3.00;1.67;;;5.80;9.50;;;;;;4993161;28;20193;-68
2023/11/04 01:33:53;;;;;;;2.13;1.03;;;5.70;10.70;;;;;;4993026;28;20412;-67
2023/11/04 01:36:18;;;;;;;2.90;2.00;;;5.50;10.30;;;;;;4993302;28;20172;-68
2023/11/04 01:38:44;;;;;;;2.30;1.10;;;5.50;11.30;;;;;;4993034;28;20208;-68
2023/11/04 01:41:10;;;;;;;2.53;1.57;;;5.40;10.30;;;;;;4992622;28;20200;-68
2023/11/04 01:43:35;;;;;;;2.63;1.40;;;5.40;11.20;;;;;;4991589;28;20195;-68
2023/11/04 01:46:14;;;;;;;4.10;1.73;;;5.30;11.60;;;;;;4993195;28;20187;-68
2023/11/04 01:48:41;;;;;;;2.00;1.00;;;5.30;11.40;;;;;;4993052;28;20490;-68
2023/11/04 01:51:07;;;;;;;3.03;1.60;;;5.30;11.80;;;;;;4991312;28;20916;-69
2023/11/04 01:53:35;;;;;;;3.20;1.70;;;5.30;11.80;;;;;;4992998;28;20435;-69
2023/11/04 01:56:01;;;;;;;2.13;0.90;;;5.20;11.70;;;;;;4992752;28;20453;-69
2023/11/04 01:58:28;;;;;;;4.23;2.20;;;5.20;12.80;;;;;;4992913;28;20875;-68
2023/11/04 02:00:54;;;;;;;2.80;1.77;;;5.10;13.50;;;;;;4992575;28;20459;-69
2023/11/04 02:03:20;;;;;;;2.30;1.30;;;5.20;13.80;;;;;;4992719;28;20423;-69
2023/11/04 02:05:46;;;;;;;2.77;1.70;;;5.30;13.10;;;;;;4992739;28;20501;-68
2023/11/04 02:08:12;;;;;;;3.77;1.50;;;5.20;12.60;;;;;;4992589;28;20188;-69
2023/11/04 02:10:38;;;;;;;3.00;1.00;;;5.10;13.20;;;;;;4992346;28;20246;-68
2023/11/04 02:13:04;;;;;;;2.53;1.47;;;5.10;13.20;;;;;;4992825;28;20455;-68
2023/11/04 02:15:29;;;;;;;2.87;1.63;;;5.10;13.20;;;;;;4992019;28;20183;-68
2023/11/04 02:17:55;;;;;;;2.60;1.67;;;5.10;13.30;;;;;;4993580;28;20223;-69
2023/11/04 02:20:23;;;;;;;4.10;1.40;;;5.00;13.90;;;;;;4991280;28;20195;-68
2023/11/04 02:22:49;;;;;;;2.60;1.63;;;4.90;14.40;;;;;;4991102;28;20207;-69
2023/11/04 02:25:18;;;;;;;2.20;1.10;;;4.90;15.10;;;;;;4992598;28;20407;-68
2023/11/04 02:27:43;;;;;;;3.10;2.10;;;4.80;15.70;;;;;;4992512;28;20549;-69
2023/11/04 02:30:11;;;;;;;3.53;1.20;;;4.70;16.40;;;;;;4992556;28;20428;-69
2023/11/04 02:32:37;;;;;;;2.58;1.50;;;4.60;17.50;;;;;;4991208;28;20202;-69
2023/11/04 02:35:04;;;;;;;2.93;1.70;;;4.60;19.10;;;;;;4991170;28;20182;-69
2023/11/04 02:37:30;;;;;;;4.65;2.45;;;4.50;18.90;;;;;;4992334;28;20550;-69
2023/11/04 02:39:56;;;;;;;3.07;1.37;;;4.50;19.80;;;;;;4990993;28;20202;-68
2023/11/04 02:42:21;;;;;;;3.50;1.87;;;4.60;19.90;;;;;;4990758;28;20449;-69
2023/11/04 02:44:47;;;;;;;2.80;1.93;;;4.60;19.90;;;;;;4992891;28;20656;-68
2023/11/04 02:47:13;;;;;;;3.87;1.67;;;4.70;19.90;;;;;;4996295;28;20604;-68
2023/11/04 02:49:38;;;;;;;2.77;1.50;;;4.80;20.00;;;;;;4996191;28;20187;-68
2023/11/04 02:52:04;;;;;;;3.50;2.30;;;5.00;19.00;;;;;;4996187;28;20199;-68
2023/11/04 02:54:30;;;;;;;3.37;1.90;;;5.10;18.10;;;;;;4996097;28;20658;-69
2023/11/04 02:56:55;;;;;;;2.70;1.90;;;5.20;17.00;;;;;;4995971;28;20459;-67
2023/11/04 02:59:21;;;;;;;2.63;1.43;;;5.40;15.40;;;;;;4996217;28;20215;-68
2023/11/04 03:01:46;;;;;;;4.00;1.80;;;5.40;15.00;;;;;;4995622;28;20693;-68
2023/11/04 03:04:12;;;;;;;3.50;2.30;;;5.60;14.70;;;;;;4996003;28;20653;-69
2023/11/04 03:06:38;;;;;;;3.20;2.07;;;5.60;13.30;;;;;;4994463;28;20180;-68
2023/11/04 03:09:04;;;;;;;2.93;1.50;;;5.70;12.50;;;;;;4994300;28;20429;-68
2023/11/04 03:11:30;;;;;;;3.27;1.63;;;5.80;12.60;;;;;;4995318;28;20975;-68
2023/11/04 03:13:55;;;;;;;2.80;1.50;;;5.80;12.10;;;;;;4995621;28;20202;-68
2023/11/04 03:16:21;;;;;;;3.20;2.03;;;5.80;12.10;;;;;;5010867;28;20184;-68
2023/11/04 03:18:47;;;;;;;2.00;1.20;;;5.90;12.20;;;;;;4995662;28;20688;-68
2023/11/04 03:21:13;;;;;;;2.40;1.37;;;5.90;12.20;;;;;;4995172;28;20192;-68
2023/11/04 03:23:41;;;;;;;2.70;1.70;;;5.90;12.20;;;;;;4995618;28;20412;-68
2023/11/04 03:26:12;;;;;;;3.40;1.80;;;6.00;12.40;;;;;;4995552;28;20180;-68
2023/11/04 03:28:37;;;;;;;2.40;1.50;;;6.00;12.30;;;;;;4995477;28;20934;-68
2023/11/04 03:31:03;;;;;;;2.60;1.70;;;6.10;12.10;;;;;;5010170;28;20482;-68
2023/11/04 03:33:30;;;;;;;2.87;2.03;;;6.00;12.30;;;;;;4995319;28;20184;-68
2023/11/04 03:35:55;;;;;;;2.30;1.60;;;6.00;12.30;;;;;;5010331;28;20521;-68
2023/11/04 03:38:21;;;;;;;3.97;2.50;;;6.10;12.30;;;;;;4995139;28;20578;-68
2023/11/04 03:40:47;;;;;;;3.20;2.27;;;6.10;12.60;;;;;;4993881;28;20593;-68
2023/11/04 03:43:12;;;;;;;4.00;2.67;;;6.10;12.60;;;;;;4995268;28;20177;-68
2023/11/04 03:45:38;;;;;;;3.63;2.10;;;6.10;13.30;;;;;;4993903;28;20225;-67
2023/11/04 03:48:04;;;;;;;3.53;2.70;;;6.00;12.70;;;;;;4994023;28;20191;-67
2023/11/04 03:50:29;;;;;;;5.30;2.13;;;5.90;13.00;;;;;;4994616;28;20176;-67
2023/11/04 03:52:58;;;;;;;4.17;2.10;;;5.70;13.90;;;;;;4995133;28;20192;-67
2023/11/04 03:55:23;;;;;;;3.00;1.70;;;5.60;15.50;;;;;;4993372;28;20187;-67
2023/11/04 03:57:49;;;;;;;2.43;2.00;;;5.50;16.20;;;;;;4994809;28;20466;-68
2023/11/04 04:00:15;;;;;;;3.33;2.40;;;5.40;16.20;;;;;;4993525;28;20230;-68
2023/11/04 04:02:41;;;;;;;3.40;1.93;;;5.40;17.10;;;;;;4994674;28;20552;-67
2023/11/04 04:05:07;;;;;;;5.30;2.57;;;5.40;17.10;;;;;;4993438;28;20481;-67
2023/11/04 04:07:33;;;;;;;3.50;2.00;;;5.40;17.50;;;;;;4993620;28;20431;-68
2023/11/04 04:09:59;;;;;;;4.67;2.27;;;5.40;18.00;;;;;;4993614;28;20803;-68
2023/11/04 04:12:25;;;;;;;2.90;1.67;;;5.40;17.90;;;;;;4993313;28;20643;-69
2023/11/04 04:14:50;;;;;;;2.90;1.90;;;5.40;17.90;;;;;;4994641;28;21022;-67
2023/11/04 04:17:16;;;;;;;3.90;2.60;;;5.40;19.10;;;;;;4994643;28;20203;-67
2023/11/04 04:19:42;;;;;;;3.40;2.00;;;5.30;19.40;;;;;;4993169;28;20536;-67
2023/11/04 04:22:08;;;;;;;2.87;2.00;;;5.20;20.30;;;;;;4992909;28;20203;-67
2023/11/04 04:24:33;;;;;;;3.30;2.43;;;5.20;20.30;;;;;;4993273;28;20253;-68
2023/11/04 04:26:59;;;;;;;3.10;1.97;;;5.10;20.80;;;;;;4993045;28;20426;-68
2023/11/04 04:29:27;;;;;;;2.43;1.63;;;5.10;21.30;;;;;;4994291;28;20285;-67
2023/11/04 04:31:53;;;;;;;2.60;1.90;;;5.00;21.70;;;;;;4994013;28;20842;-67
2023/11/04 04:34:18;;;;;;;2.73;1.90;;;5.00;22.10;;;;;;4994253;28;20740;-67
2023/11/04 04:36:47;;;;;;;2.53;1.40;;;4.90;22.10;;;;;;4994245;28;20183;-67
2023/11/04 04:39:12;;;;;;;3.10;2.07;;;4.90;23.00;;;;;;4992940;28;20559;-67
2023/11/04 04:41:38;;;;;;;2.83;1.90;;;5.00;23.20;;;;;;4993818;28;20433;-67
2023/11/04 04:44:04;;;;;;;2.60;1.83;;;5.00;22.50;;;;;;4992882;28;20175;-67
2023/11/04 04:46:29;;;;;;;2.90;1.77;;;5.00;22.50;;;;;;4992874;28;20169;-68
2023/11/04 04:48:55;;;;;;;2.90;1.57;;;5.00;21.70;;;;;;4992790;28;20181;-67
2023/11/04 04:51:21;;;;;;;2.45;1.60;;;5.00;21.60;;;;;;4992391;28;20210;-67
2023/11/04 04:53:47;;;;;;;3.00;1.27;;;5.00;21.60;;;;;;4993847;28;20267;-67
2023/11/04 04:56:16;;;;;;;3.63;2.47;;;5.00;21.50;;;;;;4993856;28;20180;-67
2023/11/04 04:58:42;;;;;;;4.00;1.77;;;5.00;21.70;;;;;;4992428;28;20517;-68
2023/11/04 05:01:21;;;;;;;3.03;1.60;;;5.00;21.80;;;;;;4992243;28;20447;-67
2023/11/04 05:03:47;;;;;;;3.03;1.93;;;5.00;22.00;;;;;;4993758;28;20259;-67
2023/11/04 05:06:13;;;;;;;2.60;1.50;;;5.00;21.50;;;;;;4993654;28;20499;-67
2023/11/04 05:08:38;;;;;;;2.40;1.60;;;5.10;21.40;;;;;;4992926;28;20176;-66
2023/11/04 05:11:05;;;;;;;2.90;1.13;;;5.20;20.30;;;;;;4993226;28;20704;-68
2023/11/04 05:13:31;;;;;;;2.77;1.73;;;5.30;20.30;;;;;;4993859;28;20836;-67
2023/11/04 05:15:57;;;;;;;2.97;1.77;;;5.40;18.80;;;;;;4993368;28;20426;-67
2023/11/04 05:18:23;;;;;;;3.07;1.70;;;5.60;18.10;;;;;;4992163;28;20656;-68
2023/11/04 05:20:48;;;;;;;2.10;1.33;;;5.60;17.70;;;;;;4993253;28;20188;-67
2023/11/04 05:23:16;;;;;;;3.60;1.50;;;5.70;17.20;;;;;;4993279;28;20215;-68
2023/11/04 05:25:42;;;;;;;2.10;1.30;;;5.70;16.90;;;;;;4992593;28;20802;-67
2023/11/04 05:28:08;;;;;;;2.93;1.87;;;5.70;16.30;;;;;;4992039;28;20530;-67
2023/11/04 05:30:35;;;;;;;1.70;0.90;;;5.80;16.10;;;;;;4992849;28;20502;-67
2023/11/04 05:33:00;;;;;;;2.37;1.40;;;5.80;15.80;;;;;;4993075;28;20210;-67
2023/11/04 05:35:26;;;;;;;2.37;1.63;;;5.80;15.20;;;;;;5008300;28;20424;-69
2023/11/04 05:37:52;;;;;;;2.17;1.27;;;5.80;15.00;;;;;;4993205;28;20265;-69
2023/11/04 05:40:18;;;;;;;1.90;1.20;;;5.80;14.60;;;;;;4991531;28;20804;-67
2023/11/04 05:42:44;;;;;;;2.37;1.30;;;5.90;14.60;;;;;;4992819;28;20455;-67
2023/11/04 05:45:09;;;;;;;3.40;1.30;;;5.90;14.50;;;;;;4992884;28;20420;-68
2023/11/04 05:47:35;;;;;;;2.90;1.20;;;5.90;13.40;;;;;;4992945;28;20181;-67
2023/11/04 05:50:02;;;;;;;3.73;1.50;;;6.00;13.90;;;;;;4992869;28;20654;-68
2023/11/04 05:52:27;;;;;;;2.70;1.40;;;6.00;13.40;;;;;;4992567;28;20204;-67
2023/11/04 05:54:53;;;;;;;2.17;1.10;;;5.90;14.00;;;;;;4992791;28;20420;-67
2023/11/04 05:57:19;;;;;;;2.40;1.60;;;5.80;13.50;;;;;;4992855;28;20246;-68
2023/11/04 05:59:45;;;;;;;2.10;1.30;;;5.80;14.10;;;;;;4991553;28;20959;-68
2023/11/04 06:02:12;;;;;;;2.03;1.33;;;5.70;14.30;;;;;;4992771;28;20550;-68
2023/11/04 06:04:38;;;;;;;2.30;1.33;;;5.70;14.50;;;;;;4991625;28;20181;-67
2023/11/04 06:07:04;;;;;;;2.17;1.27;;;5.60;14.50;;;;;;4991415;28;20420;-67
2023/11/04 06:09:31;;;;;;;1.93;0.80;;;5.60;14.70;;;;;;4991230;28;20523;-68
2023/11/04 06:11:59;;;;;;;2.27;1.13;;;5.50;14.90;;;;;;4990979;28;20470;-68
2023/11/04 06:14:26;;;;;;;5.13;1.57;;;5.50;15.70;;;;;;4992476;28;20419;-68
2023/11/04 06:16:52;;;;;;;4.20;1.70;;;5.40;15.60;;;;;;4992470;28;20447;-68
2023/11/04 06:19:18;;;;;;;2.80;1.20;;;5.40;15.50;;;;;;4991144;28;20462;-67
2023/11/04 06:21:45;;;;;;;2.63;1.20;;;5.40;15.10;;;;;;4992237;28;20193;-67
2023/11/04 06:24:11;;;;;;;2.20;1.07;;;5.50;14.90;;;;;;4992408;28;20423;-68
2023/11/04 06:26:37;;;;;;;2.40;1.00;;;5.60;14.80;;;;;;4991003;28;20431;-67
2023/11/04 06:29:02;;;;;;;2.80;1.30;;;5.60;14.50;;;;;;4992330;28;20279;-67
2023/11/04 06:31:28;;;;;;;3.20;1.27;;;5.60;13.90;;;;;;4992411;28;20231;-68
2023/11/04 06:33:56;;;;;;;3.17;1.00;;;5.60;13.80;;;;;;4990932;28;20180;-67
2023/11/04 06:36:22;;;;;;;2.50;1.33;;;5.60;13.10;;;;;;4992449;28;20172;-67
2023/11/04 06:38:48;;;;;;;1.77;1.07;;;5.70;12.20;;;;;;4991058;28;20467;-67
2023/11/04 06:41:16;;;;;;;2.30;1.10;;;5.70;12.50;;;;;;4991807;28;20431;-67
2023/11/04 06:43:46;;;;;;;3.73;1.33;;;5.70;12.10;;;;;;4992177;28;20692;-67
2023/11/04 06:46:12;;;;;;;1.80;0.80;;;5.70;12.20;;;;;;4992417;28;20893;-68
2023/11/04 06:48:38;;;;;;;2.40;1.00;;;5.70;12.10;;;;;;4992279;28;20427;-68
2023/11/04 06:51:04;;;;;;;1.83;1.00;;;5.80;11.80;;;;;;4990638;28;20443;-68
2023/11/04 06:53:30;;;;;;;2.70;1.03;;;5.80;11.30;;;;;;4990915;28;20460;-68
2023/11/04 06:55:58;;;;;;;4.87;1.30;;;5.80;11.10;;;;;;4992137;28;20493;-69
2023/11/04 06:58:29;;;;;;;3.07;1.10;;;5.80;11.70;;;;;;4991760;28;20585;-68
2023/11/04 07:00:57;;;;;;;2.00;1.10;;;5.70;12.10;;;;;;4990702;28;20519;-68
2023/11/04 07:03:22;;;;;;;3.23;1.40;;;5.70;13.20;;;;;;4990918;28;20441;-68
2023/11/04 07:05:48;;;;;;;1.97;1.13;;;5.60;13.60;;;;;;4992175;28;20503;-68
2023/11/04 07:08:14;;;;;;;2.63;1.43;;;5.60;14.40;;;;;;4992048;28;20443;-68
2023/11/04 07:10:40;;;;;;;2.37;1.10;;;5.50;15.10;;;;;;4992358;28;20266;-68
2023/11/04 07:13:11;;;;;;;2.60;0.90;;;5.50;14.30;;;;;;5038771;23;20234;-69
2023/11/04 07:15:43;;;;;;;2.00;1.30;;;5.60;13.70;;;;;;5018334;28;20761;-70
2023/11/04 07:18:09;;;;;;;3.30;1.67;;;5.60;13.60;;;;;;5018743;28;20534;-69
2023/11/04 07:20:35;;;;;;;2.00;0.83;;;5.70;13.30;;;;;;5018363;28;20857;-69
2023/11/04 07:23:02;;;;;;;3.03;1.20;;;5.80;13.00;;;;;;5002897;28;20463;-69
2023/11/04 07:25:27;;;;;;;2.70;1.30;;;5.90;12.60;;;;;;4999528;28;20612;-69
2023/11/04 07:27:53;;;;;;;3.33;1.30;;;5.90;12.20;;;;;;4999311;28;20441;-70
2023/11/04 07:30:19;;;;;;;1.77;1.00;;;6.10;11.20;;;;;;4999157;28;20737;-69
2023/11/04 07:32:45;;;;;;;3.20;1.17;;;6.20;10.20;;;;;;5001608;28;20208;-69
2023/11/04 07:35:11;;;;;;;2.20;1.30;;;6.30;10.30;;;;;;5002830;28;20846;-70
2023/11/04 07:37:37;;;;;;;1.80;1.00;;;6.40;10.00;;;;;;5000709;28;20528;-70
2023/11/04 07:40:05;;;;;;;2.30;1.10;;;6.40;9.00;;;;;;5002229;28;20420;-69
2023/11/04 07:42:31;;;;;;;1.97;1.13;;;6.40;8.40;;;;;;5016648;28;20197;-69
2023/11/04 07:44:57;;;;;;;4.13;1.73;;;6.50;8.20;;;;;;5000087;28;20430;-69
2023/11/04 07:47:22;;;;;;;1.80;1.00;;;6.50;8.30;;;;;;5012392;28;20698;-69
2023/11/04 07:49:48;;;;;;;2.00;1.30;;;6.60;8.20;;;;;;4995298;28;20727;-69
2023/11/04 07:52:13;;;;;;;2.20;1.10;;;6.70;7.60;;;;;;4994937;28;20712;-69
2023/11/04 07:54:40;;;;;;;2.37;1.20;;;6.70;7.00;;;;;;4995531;28;20673;-69
2023/11/04 07:57:05;;;;;;;2.57;1.03;;;6.80;6.60;;;;;;4995029;28;20196;-69
2023/11/04 07:59:32;;;;;;;4.07;1.40;;;7.00;6.70;;;;;;4994861;28;20411;-69
2023/11/04 08:01:58;;;;;;;2.20;0.87;;;7.10;6.00;;;;;;4994558;28;20439;-69
2023/11/04 08:04:26;;;;;;;2.17;1.27;;;7.30;4.90;;;;;;4994958;28;20412;-69
2023/11/04 08:06:52;;;;;;;2.17;1.30;;;7.30;4.30;;;;;;4994892;28;20164;-69
2023/11/04 08:09:20;;;;;;;2.60;1.20;;;7.40;4.30;;;;;;5010005;28;21006;-69
2023/11/04 08:11:46;;;;;;;2.30;1.20;;;7.40;3.70;;;;;;4992948;28;20457;-68
2023/11/04 08:14:12;;;;;;;2.50;1.33;;;7.50;1.80;;;;;;4995438;28;20423;-67
2023/11/04 08:16:38;;;;;;;2.67;1.30;;;7.50;2.90;;;;;;4994894;28;20682;-68
2023/11/04 08:19:05;;;;;;;3.50;1.20;;;7.60;2.20;;;;;;4993366;28;20559;-69
2023/11/04 08:21:31;;;;;;;1.90;1.07;;;7.60;3.00;;;;;;4993000;28;20511;-69
2023/11/04 08:23:58;;;;;;;2.60;1.40;;;7.70;2.60;;;;;;4994604;28;20418;-69
2023/11/04 08:26:24;;;;;;;2.40;1.10;;;7.80;3.10;;;;;;4994700;28;20181;-69
2023/11/04 08:28:51;;;;;;;2.27;1.30;;;7.90;1.80;;;;;;4994538;28;20505;-69
2023/11/04 08:31:17;;;;;;;2.53;1.30;;;8.00;1.00;;;;;;4994043;28;20789;-69
2023/11/04 08:33:43;;;;;;;1.90;0.73;;;8.20;1.00;;;;;;4994335;28;20557;-69
2023/11/04 08:36:09;;;;;;;2.00;1.00;;;8.30;1.00;;;;;;4994421;28;20786;-69
2023/11/04 08:38:36;;;;;;;3.53;1.90;;;8.40;1.00;;;;;;4994215;28;20463;-69
2023/11/04 08:41:02;;;;;;;2.13;1.13;;;8.60;1.00;;;;;;4992787;28;20180;-69
2023/11/04 08:43:27;;;;;;;2.00;1.00;;;8.60;1.00;;;;;;4991901;28;20544;-69
2023/11/04 08:45:53;;;;;;;3.63;1.30;;;8.60;1.00;;;;;;4994289;28;20175;-69
2023/11/04 08:48:18;;;;;;;2.20;1.47;;;8.60;1.00;;;;;;4994552;28;20182;-68
2023/11/04 08:50:44;;;;;;;2.10;1.00;;;8.70;1.00;;;;;;4994014;28;20193;-69
2023/11/04 08:53:09;;;;;;;2.50;0.97;;;8.60;1.00;;;;;;4992962;28;20203;-68
2023/11/04 08:55:35;;;;;;;2.63;0.97;;;;;;;;;;4994147;28;20247;-68
2023/11/04 08:58:01;;;;;;;2.03;1.03;;;8.70;12.30;;;;;;4993965;28;20294;-68
2023/11/04 09:00:26;;;;;;;2.27;1.10;;;8.80;15.40;;;;;;4993643;28;20854;-68
2023/11/04 09:02:52;;;;;;;1.70;0.77;;;8.90;17.60;;;;;;4993745;28;20278;-69
2023/11/04 09:05:18;;;;;;;2.23;0.90;;;9.10;15.30;;;;;;4993955;28;20180;-69
2023/11/04 09:07:44;;;;;;;2.00;1.23;;;9.20;10.60;;;;;;4993857;28;20230;-70
2023/11/04 09:10:10;;;;;;;2.57;1.10;;;9.20;9.90;;;;;;4992483;28;20230;-69
2023/11/04 09:12:35;;;;;;;3.27;1.30;;;9.20;10.30;;;;;;4993504;28;20894;-69
2023/11/04 09:15:02;;;;;;;2.47;1.00;;;9.20;11.30;;;;;;4993550;28;20187;-69
2023/11/04 09:17:27;;;;;;;1.90;0.90;;;9.10;9.90;;;;;;4993772;28;20207;-69
2023/11/04 09:19:53;;;;;;;2.00;0.90;;;9.00;10.30;;;;;;4993394;28;20911;-69
2023/11/04 09:22:18;;;;;;;2.20;1.10;;;9.20;11.90;;;;;;4993237;28;20202;-69
2023/11/04 09:24:44;;;;;;;2.67;1.10;;;9.50;10.10;;;;;;4992174;28;20183;-70
2023/11/04 09:27:09;;;;;;;2.40;0.90;;;9.60;8.60;;;;;;4993813;28;20544;-69
2023/11/04 09:29:35;;;;;;;1.97;0.90;;;9.70;6.60;;;;;;4993335;28;20231;-69
2023/11/04 09:32:02;;;;;;;1.90;0.80;;;9.70;6.30;;;;;;4992906;28;20291;-69
2023/11/04 09:34:28;;;;;;;2.20;1.10;;;9.80;5.80;;;;;;4991867;28;20233;-68
2023/11/04 09:36:54;;;;;;;2.03;1.00;;;9.90;6.20;;;;;;4993090;28;20427;-68
2023/11/04 09:39:19;;;;;;;1.63;0.73;;;10.00;5.20;;;;;;4993140;28;20412;-68
2023/11/04 09:41:45;;;;;;;2.67;1.10;;;9.90;5.40;;;;;;4992766;28;20207;-69
2023/11/04 09:44:11;;;;;;;3.03;2.30;;;10.00;5.20;;;;;;4991708;28;20179;-68
2023/11/04 09:46:37;;;;;;;5.43;3.67;;;9.80;5.80;;;;;;4992932;28;20467;-69
2023/11/04 09:49:03;;;;;;;2.13;1.30;;;9.80;6.20;;;;;;4992825;28;20549;-69
2023/11/04 09:51:29;;;;;;;2.03;1.00;;;9.90;5.90;;;;;;4992644;28;20201;-68
2023/11/04 09:54:00;;;;;;;3.40;1.30;;;9.80;5.40;;;;;;4992454;28;20477;-69
2023/11/04 09:56:26;;;;;;;1.77;0.80;;;9.70;5.00;;;;;;4992961;28;20187;-69
2023/11/04 09:58:52;;;;;;;1.80;0.90;;;9.70;5.80;;;;;;4991651;28;20473;-69
2023/11/04 10:01:20;;;;;;;1.97;1.00;;;9.80;5.80;;;;;;4991246;28;20439;-69
2023/11/04 10:03:47;;;;;;;2.00;1.00;;;9.90;3.90;;;;;;4992895;28;20645;-68
2023/11/04 10:06:13;;;;;;;2.10;0.97;;;10.10;2.00;;;;;;4991563;28;20428;-69
2023/11/04 10:08:39;;;;;;;2.00;0.87;;;10.30;1.90;;;;;;4991357;28;20983;-69
2023/11/04 10:11:05;;;;;;;2.33;1.40;;;10.50;1.90;;;;;;4992419;28;20419;-69
2023/11/04 10:13:31;;;;;;;3.50;1.13;;;10.70;1.10;;;;;;4992620;28;20199;-69
2023/11/04 10:15:57;;;;;;;2.87;0.90;;;10.70;1.00;;;;;;4992575;28;20438;-69
2023/11/04 10:18:24;;;;;;;2.47;0.90;;;10.80;1.00;;;;;;4992451;28;20458;-70
2023/11/04 10:20:50;;;;;;;2.87;1.53;;;10.90;1.00;;;;;;4992302;28;20176;-69
2023/11/04 10:23:16;;;;;;;6.03;2.87;;;11.00;1.00;;;;;;4991048;28;20478;-69
2023/11/04 10:25:41;;;;;;;3.30;1.20;;;11.20;1.00;;;;;;4992566;28;20843;-68
2023/11/04 10:28:08;;;;;;;2.00;0.90;;;11.30;1.00;;;;;;4992427;28;20185;-69
2023/11/04 10:30:37;;;;;;;3.03;1.07;;;11.10;1.00;;;;;;4992117;28;20199;-69
2023/11/04 10:33:10;;;;;;;1.80;1.03;;;11.20;1.00;;;;;;4990974;28;20448;-68
2023/11/04 10:35:40;;;;;;;1.70;0.90;;;11.20;1.00;;;;;;4992623;28;20430;-69
2023/11/04 10:38:09;;;;;;;1.80;1.10;;;11.10;1.00;;;;;;5007517;28;20463;-69
2023/11/04 10:40:35;;;;;;;2.77;1.00;;;11.20;1.00;;;;;;4992093;28;20446;-68
2023/11/04 10:43:10;;;;;;;1.80;0.90;;;11.10;1.00;;;;;;4990860;28;20436;-68
2023/11/04 10:45:41;;;;;;;2.40;1.07;;;10.90;1.00;;;;;;4992329;28;20923;-68
2023/11/04 10:48:48;;;;;;;3.53;2.00;;;10.80;1.00;;;;;;4992330;28;20411;-68
2023/11/04 10:51:28;;;;;;;2.10;1.30;;;10.90;1.00;;;;;;4991900;28;20416;-68
2023/11/04 10:54:06;;;;;;;3.20;1.20;;;10.90;1.00;;;;;;4992197;28;20410;-68
2023/11/04 10:56:57;;;;;;;1.80;1.10;;;10.90;1.00;;;;;;4992224;28;20514;-69
2023/11/04 11:00:02;;;;;;;2.00;1.33;;;10.80;1.00;;;;;;4991996;28;20510;-68
2023/11/04 11:02:28;;;;;;;2.90;1.07;;;10.50;1.00;;;;;;4991901;28;20434;-70
2023/11/04 11:04:56;;;;;;;2.43;1.17;;;10.30;1.00;;;;;;4992189;28;20414;-68
2023/11/04 11:07:22;;;;;;;2.00;0.90;;;10.40;1.00;;;;;;4994971;28;20884;-69
2023/11/04 11:09:47;;;;;;;2.00;1.10;;;10.50;1.00;;;;;;4995685;28;20411;-69
2023/11/04 11:12:18;;;;;;;3.90;1.07;;;10.70;1.00;;;;;;4994077;28;20484;-69
2023/11/04 11:14:44;;;;;;;2.73;1.53;;;10.70;1.00;;;;;;4994580;28;20831;-70
2023/11/04 11:17:10;;;;;;;2.17;1.20;;;11.00;1.00;;;;;;4996233;28;20497;-68
2023/11/04 11:19:46;;;;;;;2.50;1.20;;;11.10;1.00;;;;;;4996416;28;20223;-68
2023/11/04 11:22:24;;;;;;;2.07;1.00;;;11.20;1.00;;;;;;4995870;28;20222;-69
2023/11/04 11:24:52;;;;;;;2.93;1.30;;;11.30;1.00;;;;;;4995906;28;20411;-69
2023/11/04 11:27:18;;;;;;;1.77;1.13;;;11.30;1.00;;;;;;4994393;28;20451;-68
2023/11/04 11:29:47;;;;;;;6.40;3.93;;;11.30;1.00;;;;;;4995625;28;20411;-69
2023/11/04 11:32:13;;;;;;;2.07;1.30;;;11.40;1.00;;;;;;4995436;28;20443;-68
2023/11/04 11:34:49;;;;;;;3.23;1.40;;;11.60;1.00;;;;;;4994229;28;20423;-68
2023/11/04 11:37:17;;;;;;;1.70;1.03;;;11.80;1.00;;;;;;4995373;28;20550;-68
2023/11/04 11:39:43;;;;;;;2.63;1.50;;;11.90;1.00;;;;;;4995655;28;20447;-68
2023/11/04 11:42:09;;;;;;;3.13;1.27;;;11.90;1.00;;;;;;4995076;28;20455;-69
2023/11/04 11:44:34;;;;;;;2.27;1.23;;;11.90;1.00;;;;;;4995482;28;20541;-69
2023/11/04 11:47:03;;;;;;;2.20;1.30;;;11.90;1.00;;;;;;4995459;28;20173;-69
2023/11/04 11:49:31;;;;;;;2.17;1.47;;;11.80;1.00;;;;;;4995254;28;20180;-69
2023/11/04 11:51:56;;;;;;;2.10;1.07;;;11.80;1.00;;;;;;4995611;28;20431;-68
2023/11/04 11:54:23;;;;;;;1.87;1.10;;;11.80;1.00;;;;;;4995194;28;20415;-70
2023/11/04 11:56:50;;;;;;;2.50;1.87;;;11.80;1.00;;;;;;4995014;28;20169;-69
2023/11/04 11:59:16;;;;;;;2.87;1.50;;;11.90;1.00;;;;;;4995071;28;20416;-69
2023/11/04 12:01:41;;;;;;;1.83;0.97;;;11.90;1.00;;;;;;4994842;28;20434;-69
2023/11/04 12:04:07;;;;;;;2.00;1.10;;;11.70;1.00;;;;;;4993846;28;20384;-69
2023/11/04 12:06:36;;;;;;;2.10;1.10;;;11.60;1.00;;;;;;4994975;28;20256;-69
2023/11/04 12:09:03;;;;;;;1.90;1.33;;;11.40;1.00;;;;;;4993653;28;20840;-69
2023/11/04 12:11:30;;;;;;;3.80;1.63;;;11.40;1.00;;;;;;4994620;28;20557;-70
2023/11/04 12:13:55;;;;;;;2.27;1.37;;;11.30;1.00;;;;;;4993752;28;20523;-70
2023/11/04 12:16:24;;;;;;;2.97;1.90;;;11.30;1.00;;;;;;4994978;28;20419;-70
2023/11/04 12:18:51;;;;;;;2.07;1.50;;;11.20;1.00;;;;;;4994731;28;20201;-70
2023/11/04 12:21:17;;;;;;;2.30;1.50;;;11.10;1.00;;;;;;4994584;28;20522;-70
2023/11/04 12:23:45;;;;;;;2.50;1.60;;;11.10;1.00;;;;;;4995177;28;20452;-69
2023/11/04 12:26:10;;;;;;;2.10;1.20;;;11.10;1.00;;;;;;4995212;28;20420;-69
2023/11/04 12:28:38;;;;;;;2.00;1.10;;;11.30;1.00;;;;;;4994891;28;20419;-69
2023/11/04 12:31:05;;;;;;;1.97;1.10;;;11.40;1.00;;;;;;4993392;28;20188;-69
2023/11/04 12:33:31;;;;;;;2.63;0.90;;;11.40;1.00;;;;;;4995251;28;20423;-69
2023/11/04 12:36:04;;;;;;;1.70;1.03;;;11.30;1.00;;;;;;4994578;28;20928;-70
2023/11/04 12:38:33;;;;;;;2.00;1.00;;;11.20;1.00;;;;;;4995938;28;20811;-69
2023/11/04 12:41:03;;;;;;;1.70;1.00;;;11.20;1.00;;;;;;4994169;28;20423;-69
2023/11/04 12:43:28;;;;;;;2.23;1.10;;;11.10;1.00;;;;;;4995239;28;20514;-67
2023/11/04 12:45:58;;;;;;;1.60;1.00;;;11.00;1.00;;;;;;4993228;28;20478;-68
2023/11/04 12:48:24;;;;;;;2.40;1.00;;;11.00;1.00;;;;;;4994533;28;20184;-69
2023/11/04 12:50:51;;;;;;;1.87;1.07;;;11.00;1.00;;;;;;4994174;28;20419;-69
2023/11/04 12:53:18;;;;;;;6.40;1.17;;;10.90;1.00;;;;;;4994109;28;20498;-69
2023/11/04 12:55:44;;;;;;;3.73;2.67;;;10.80;1.00;;;;;;4993105;28;20430;-69
2023/11/04 12:58:12;;;;;;;1.80;0.97;;;10.80;1.00;;;;;;4994581;28;20439;-70